UAL12G TKPK-MDLR
Flight info
| Callsign | UAL12G |
|---|---|
| Flight time | 1h 13m |
| Altitude | 34000 |
| Route | UDGEL1 GABAR G633 COY A555 TUUNA RTE4 JOSHE RTE12 MAZ B892 ANTEX/N0373F180 B520 GOSUB L577 LRN |
| Aircraft | A319/M-SDE3FGHIRWY/LB1 |
Departure
| Time | 2026-04-20 14:30 |
|---|---|
| Airport | Robert L. Bradshaw International Airport (TKPK) |
Arrival
| Time | 2026-04-20 15:43 |
|---|---|
| Airport | Casa De Campo International Airport (MDLR) |
| Time | Latitude | Longitude | Altitude | Speed | Heading |
|---|---|---|---|---|---|
| 2026-04-20 13:58 | 17.31003 | -62.71625 | 160 ft | 0 kts | 193° |
| 2026-04-20 14:05 | 17.31247 | -62.71376 | 160 ft | 0 kts | 150° |
| 2026-04-20 14:05 | 17.31216 | -62.71429 | 160 ft | 0 kts | 150° |
| 2026-04-20 14:05 | 17.31185 | -62.71458 | 160 ft | 0 kts | 150° |
| 2026-04-20 14:06 | 17.31245 | -62.71375 | 160 ft | 0 kts | 150° |
| 2026-04-20 14:06 | 17.31019 | -62.71621 | 160 ft | 0 kts | 193° |
| 2026-04-20 14:07 | 17.31012 | -62.71622 | 160 ft | 0 kts | 193° |
| 2026-04-20 14:19 | 17.31011 | -62.71631 | 160 ft | 4 kts | 257° |
| 2026-04-20 14:20 | 17.31020 | -62.71656 | 160 ft | 4 kts | 295° |
| 2026-04-20 14:20 | 17.31031 | -62.71682 | 160 ft | 4 kts | 293° |
| 2026-04-20 14:20 | 17.31034 | -62.71701 | 160 ft | 0 kts | 244° |
| 2026-04-20 14:21 | 17.31034 | -62.71702 | 160 ft | 0 kts | 244° |
| 2026-04-20 14:21 | 17.31033 | -62.71703 | 160 ft | 0 kts | 244° |
| 2026-04-20 14:21 | 17.31032 | -62.71706 | 160 ft | 0 kts | 245° |
| 2026-04-20 14:24 | 17.31028 | -62.71713 | 160 ft | 2 kts | 237° |
| 2026-04-20 14:24 | 17.31012 | -62.71735 | 160 ft | 5 kts | 235° |
| 2026-04-20 14:24 | 17.30989 | -62.71770 | 160 ft | 7 kts | 237° |
| 2026-04-20 14:25 | 17.30960 | -62.71819 | 160 ft | 9 kts | 237° |
| 2026-04-20 14:25 | 17.30923 | -62.71877 | 160 ft | 10 kts | 236° |
| 2026-04-20 14:25 | 17.30882 | -62.71941 | 161 ft | 11 kts | 236° |
| 2026-04-20 14:25 | 17.30839 | -62.72008 | 161 ft | 11 kts | 236° |
| 2026-04-20 14:26 | 17.30796 | -62.72076 | 162 ft | 11 kts | 237° |
| 2026-04-20 14:26 | 17.30753 | -62.72146 | 163 ft | 11 kts | 237° |
| 2026-04-20 14:26 | 17.30723 | -62.72220 | 165 ft | 10 kts | 263° |
| 2026-04-20 14:26 | 17.30719 | -62.72280 | 169 ft | 6 kts | 266° |
| 2026-04-20 14:27 | 17.30716 | -62.72315 | 171 ft | 3 kts | 266° |
| 2026-04-20 14:27 | 17.30715 | -62.72336 | 173 ft | 6 kts | 266° |
| 2026-04-20 14:27 | 17.30710 | -62.72424 | 176 ft | 19 kts | 266° |
| 2026-04-20 14:27 | 17.30659 | -62.72599 | 176 ft | 29 kts | 235° |
| 2026-04-20 14:28 | 17.30531 | -62.72730 | 176 ft | 18 kts | 242° |
| 2026-04-20 14:28 | 17.30541 | -62.72754 | 176 ft | 1 kts | 28° |
| 2026-04-20 14:28 | 17.30555 | -62.72743 | 176 ft | 4 kts | 36° |
| 2026-04-20 14:28 | 17.30581 | -62.72719 | 176 ft | 6 kts | 51° |
| 2026-04-20 14:29 | 17.30608 | -62.72677 | 176 ft | 8 kts | 57° |
| 2026-04-20 14:29 | 17.30615 | -62.72666 | 176 ft | 0 kts | 57° |
| 2026-04-20 14:29 | 17.30697 | -62.72533 | 176 ft | 53 kts | 57° |
| 2026-04-20 14:29 | 17.31016 | -62.72031 | 175 ft | 111 kts | 56° |
| 2026-04-20 14:30 | 17.31517 | -62.71201 | 302 ft | 148 kts | 60° |
| 2026-04-20 14:30 | 17.32100 | -62.70290 | 959 ft | 151 kts | 58° |
| 2026-04-20 14:30 | 17.32677 | -62.69387 | 1728 ft | 147 kts | 60° |
| 2026-04-20 14:30 | 17.33256 | -62.68472 | 2157 ft | 159 kts | 59° |
| 2026-04-20 14:31 | 17.33907 | -62.67439 | 2419 ft | 181 kts | 59° |
| 2026-04-20 14:31 | 17.34649 | -62.66261 | 2698 ft | 207 kts | 59° |
| 2026-04-20 14:31 | 17.35488 | -62.64928 | 3137 ft | 232 kts | 58° |
| 2026-04-20 14:31 | 17.36413 | -62.63466 | 3729 ft | 249 kts | 59° |
| 2026-04-20 14:32 | 17.37382 | -62.61934 | 4659 ft | 254 kts | 58° |
| 2026-04-20 14:32 | 17.38367 | -62.60380 | 5565 ft | 258 kts | 58° |
| 2026-04-20 14:32 | 17.39369 | -62.58802 | 6467 ft | 263 kts | 58° |
| 2026-04-20 14:32 | 17.40391 | -62.57195 | 7307 ft | 266 kts | 57° |
| 2026-04-20 14:33 | 17.41638 | -62.55745 | 8096 ft | 275 kts | 36° |
| 2026-04-20 14:33 | 17.43458 | -62.55091 | 8889 ft | 285 kts | 5° |
| 2026-04-20 14:33 | 17.45434 | -62.55449 | 9713 ft | 294 kts | 342° |
| 2026-04-20 14:33 | 17.47303 | -62.56399 | 10310 ft | 308 kts | 331° |
| 2026-04-20 14:34 | 17.48939 | -62.57979 | 10520 ft | 336 kts | 306° |
| 2026-04-20 14:34 | 17.49826 | -62.60285 | 10998 ft | 350 kts | 279° |
| 2026-04-20 14:34 | 17.49665 | -62.62830 | 11665 ft | 356 kts | 253° |
| 2026-04-20 14:34 | 17.48634 | -62.65207 | 12382 ft | 359 kts | 243° |
| 2026-04-20 14:35 | 17.47598 | -62.67584 | 13110 ft | 360 kts | 248° |
| 2026-04-20 14:35 | 17.46681 | -62.70024 | 13845 ft | 361 kts | 250° |
| 2026-04-20 14:35 | 17.45809 | -62.72494 | 14470 ft | 362 kts | 251° |
| 2026-04-20 14:35 | 17.44935 | -62.74973 | 15083 ft | 364 kts | 251° |
| 2026-04-20 14:36 | 17.44037 | -62.77459 | 15692 ft | 366 kts | 251° |
| 2026-04-20 14:36 | 17.43106 | -62.79953 | 16293 ft | 369 kts | 250° |
| 2026-04-20 14:36 | 17.42151 | -62.82453 | 16885 ft | 371 kts | 250° |
| 2026-04-20 14:36 | 17.41177 | -62.84970 | 17466 ft | 374 kts | 250° |
| 2026-04-20 14:37 | 17.40355 | -62.87080 | 17939 ft | 376 kts | 250° |
| 2026-04-20 14:37 | 17.39323 | -62.89728 | 18497 ft | 379 kts | 250° |
| 2026-04-20 14:37 | 17.38327 | -62.92291 | 18996 ft | 382 kts | 250° |
| 2026-04-20 14:37 | 17.37321 | -62.94878 | 19481 ft | 384 kts | 251° |
| 2026-04-20 14:38 | 17.36429 | -62.97516 | 19968 ft | 385 kts | 258° |
| 2026-04-20 14:38 | 17.36010 | -63.00272 | 20451 ft | 383 kts | 269° |
| 2026-04-20 14:38 | 17.36097 | -63.03049 | 20941 ft | 382 kts | 280° |
| 2026-04-20 14:38 | 17.36652 | -63.05764 | 21412 ft | 382 kts | 286° |
| 2026-04-20 14:39 | 17.37287 | -63.08475 | 21896 ft | 384 kts | 286° |
| 2026-04-20 14:39 | 17.37913 | -63.11200 | 22363 ft | 386 kts | 286° |
| 2026-04-20 14:39 | 17.38535 | -63.13943 | 22828 ft | 388 kts | 286° |
| 2026-04-20 14:39 | 17.39156 | -63.16703 | 23274 ft | 390 kts | 286° |
| 2026-04-20 14:40 | 17.39779 | -63.19469 | 23704 ft | 392 kts | 286° |
| 2026-04-20 14:40 | 17.40407 | -63.22253 | 24060 ft | 394 kts | 286° |
| 2026-04-20 14:40 | 17.41044 | -63.25058 | 24396 ft | 396 kts | 286° |
| 2026-04-20 14:40 | 17.41686 | -63.27867 | 24746 ft | 399 kts | 287° |
| 2026-04-20 14:41 | 17.42335 | -63.30696 | 25079 ft | 401 kts | 287° |
| 2026-04-20 14:41 | 17.42987 | -63.33542 | 25414 ft | 403 kts | 287° |
| 2026-04-20 14:41 | 17.43637 | -63.36406 | 25757 ft | 405 kts | 287° |
| 2026-04-20 14:41 | 17.44286 | -63.39278 | 26092 ft | 408 kts | 287° |
| 2026-04-20 14:42 | 17.44942 | -63.42184 | 26433 ft | 410 kts | 287° |
| 2026-04-20 14:42 | 17.45602 | -63.45092 | 26753 ft | 412 kts | 287° |
| 2026-04-20 14:42 | 17.46263 | -63.48016 | 27098 ft | 414 kts | 287° |
| 2026-04-20 14:42 | 17.46925 | -63.50957 | 27420 ft | 416 kts | 287° |
| 2026-04-20 14:43 | 17.47592 | -63.53917 | 27749 ft | 419 kts | 287° |
| 2026-04-20 14:43 | 17.48262 | -63.56897 | 28087 ft | 421 kts | 287° |
| 2026-04-20 14:43 | 17.48934 | -63.59889 | 28417 ft | 423 kts | 287° |
| 2026-04-20 14:43 | 17.49612 | -63.62894 | 28751 ft | 425 kts | 287° |
| 2026-04-20 14:44 | 17.50296 | -63.65917 | 29079 ft | 428 kts | 287° |
| 2026-04-20 14:44 | 17.50984 | -63.68955 | 29400 ft | 430 kts | 287° |
| 2026-04-20 14:44 | 17.51675 | -63.72014 | 29723 ft | 432 kts | 287° |
| 2026-04-20 14:44 | 17.52347 | -63.75002 | 30035 ft | 435 kts | 287° |
| 2026-04-20 14:45 | 17.53038 | -63.78090 | 30315 ft | 437 kts | 286° |
| 2026-04-20 14:45 | 17.53732 | -63.81195 | 30592 ft | 438 kts | 286° |
| 2026-04-20 14:45 | 17.54431 | -63.84306 | 30863 ft | 440 kts | 286° |
| 2026-04-20 14:45 | 17.55132 | -63.87433 | 31142 ft | 442 kts | 286° |
| 2026-04-20 14:46 | 17.55835 | -63.90573 | 31405 ft | 443 kts | 286° |
| 2026-04-20 14:46 | 17.56538 | -63.93718 | 31680 ft | 444 kts | 286° |
| 2026-04-20 14:46 | 17.57240 | -63.96867 | 32071 ft | 442 kts | 286° |
| 2026-04-20 14:46 | 17.57937 | -64.00001 | 32481 ft | 441 kts | 285° |
| 2026-04-20 14:47 | 17.58630 | -64.03119 | 32890 ft | 439 kts | 285° |
| 2026-04-20 14:47 | 17.59323 | -64.06226 | 33301 ft | 437 kts | 285° |
| 2026-04-20 14:47 | 17.60013 | -64.09325 | 33700 ft | 436 kts | 285° |
| 2026-04-20 14:48 | 17.61390 | -64.15523 | 34076 ft | 428 kts | 285° |
| 2026-04-20 14:48 | 17.62733 | -64.21551 | 34088 ft | 422 kts | 285° |
| 2026-04-20 14:49 | 17.64063 | -64.27538 | 34078 ft | 421 kts | 285° |
| 2026-04-20 14:49 | 17.65166 | -64.32510 | 34084 ft | 421 kts | 285° |
| 2026-04-20 14:50 | 17.66706 | -64.39462 | 34085 ft | 421 kts | 285° |
| 2026-04-20 14:50 | 17.68019 | -64.45399 | 34079 ft | 421 kts | 285° |
| 2026-04-20 14:51 | 17.69124 | -64.50407 | 34086 ft | 421 kts | 285° |
| 2026-04-20 14:51 | 17.70438 | -64.56388 | 34090 ft | 421 kts | 285° |
| 2026-04-20 14:52 | 17.71757 | -64.62364 | 34095 ft | 420 kts | 285° |
| 2026-04-20 14:52 | 17.73067 | -64.68331 | 34096 ft | 420 kts | 285° |
| 2026-04-20 14:53 | 17.74363 | -64.74313 | 34105 ft | 420 kts | 285° |
| 2026-04-20 14:53 | 17.75618 | -64.80302 | 34106 ft | 420 kts | 285° |
| 2026-04-20 14:54 | 17.76868 | -64.86292 | 34105 ft | 420 kts | 285° |
| 2026-04-20 14:54 | 17.78121 | -64.92281 | 34106 ft | 420 kts | 285° |
| 2026-04-20 14:55 | 17.79380 | -64.98266 | 34103 ft | 420 kts | 285° |
| 2026-04-20 14:55 | 17.80634 | -65.04265 | 34096 ft | 420 kts | 285° |
| 2026-04-20 14:56 | 17.81889 | -65.10250 | 34090 ft | 420 kts | 285° |
| 2026-04-20 14:56 | 17.83146 | -65.16227 | 34085 ft | 419 kts | 285° |
| 2026-04-20 14:57 | 17.84387 | -65.22203 | 34083 ft | 419 kts | 285° |
| 2026-04-20 14:57 | 17.85617 | -65.28140 | 34081 ft | 419 kts | 285° |
| 2026-04-20 14:58 | 17.86859 | -65.34105 | 34080 ft | 418 kts | 285° |
| 2026-04-20 14:58 | 17.88092 | -65.40054 | 34082 ft | 418 kts | 284° |
| 2026-04-20 14:59 | 17.89326 | -65.46017 | 34085 ft | 418 kts | 284° |
| 2026-04-20 14:59 | 17.90546 | -65.51943 | 34084 ft | 418 kts | 284° |
| 2026-04-20 15:00 | 17.91781 | -65.57904 | 34084 ft | 417 kts | 284° |
| 2026-04-20 15:00 | 17.93009 | -65.63853 | 34084 ft | 417 kts | 284° |
| 2026-04-20 15:01 | 17.94240 | -65.69843 | 34086 ft | 417 kts | 284° |
| 2026-04-20 15:01 | 17.95453 | -65.75751 | 34085 ft | 417 kts | 284° |
| 2026-04-20 15:02 | 17.96681 | -65.81741 | 34083 ft | 416 kts | 284° |
| 2026-04-20 15:02 | 17.97922 | -65.87676 | 34085 ft | 415 kts | 288° |
| 2026-04-20 15:03 | 18.00068 | -65.93263 | 34087 ft | 413 kts | 296° |
| 2026-04-20 15:03 | 18.02024 | -65.97830 | 34085 ft | 412 kts | 296° |
| 2026-04-20 15:04 | 18.02128 | -65.98074 | 34090 ft | 411 kts | 295° |
| 2026-04-20 15:05 | 18.04710 | -66.03436 | 34084 ft | 414 kts | 296° |
| 2026-04-20 15:05 | 18.06952 | -66.09010 | 34100 ft | 414 kts | 294° |
| 2026-04-20 15:06 | 18.09171 | -66.14589 | 34102 ft | 413 kts | 295° |
| 2026-04-20 15:06 | 18.11488 | -66.20115 | 34108 ft | 412 kts | 296° |
| 2026-04-20 15:07 | 18.13843 | -66.25604 | 34112 ft | 412 kts | 296° |
| 2026-04-20 15:07 | 18.16187 | -66.31084 | 34103 ft | 411 kts | 296° |
| 2026-04-20 15:08 | 18.18515 | -66.36575 | 34098 ft | 410 kts | 295° |
| 2026-04-20 15:08 | 18.20839 | -66.42061 | 34097 ft | 410 kts | 296° |
| 2026-04-20 15:09 | 18.23149 | -66.47539 | 34095 ft | 410 kts | 294° |
| 2026-04-20 15:09 | 18.24321 | -66.53416 | 34092 ft | 416 kts | 275° |
| 2026-04-20 15:10 | 18.24435 | -66.59496 | 34091 ft | 416 kts | 275° |
| 2026-04-20 15:10 | 18.24581 | -66.65571 | 34087 ft | 415 kts | 275° |
| 2026-04-20 15:11 | 18.24734 | -66.71644 | 34085 ft | 415 kts | 275° |
| 2026-04-20 15:11 | 18.24874 | -66.77699 | 34082 ft | 414 kts | 275° |
| 2026-04-20 15:12 | 18.25002 | -66.83762 | 34082 ft | 414 kts | 275° |
| 2026-04-20 15:12 | 18.25128 | -66.89825 | 34085 ft | 414 kts | 275° |
| 2026-04-20 15:13 | 18.25258 | -66.95884 | 34084 ft | 414 kts | 275° |
| 2026-04-20 15:13 | 18.25386 | -67.01940 | 34082 ft | 414 kts | 275° |
| 2026-04-20 15:14 | 18.25511 | -67.07998 | 34086 ft | 414 kts | 275° |
| 2026-04-20 15:14 | 18.25664 | -67.14051 | 34084 ft | 412 kts | 278° |
| 2026-04-20 15:15 | 18.26912 | -67.19881 | 34083 ft | 408 kts | 288° |
| 2026-04-20 15:15 | 18.28440 | -67.25636 | 34081 ft | 408 kts | 288° |
| 2026-04-20 15:15 | 18.29198 | -67.28513 | 33499 ft | 411 kts | 288° |
| 2026-04-20 15:16 | 18.29958 | -67.31405 | 33029 ft | 408 kts | 288° |
| 2026-04-20 15:16 | 18.30714 | -67.34278 | 32566 ft | 405 kts | 288° |
| 2026-04-20 15:16 | 18.31463 | -67.37114 | 32113 ft | 401 kts | 288° |
| 2026-04-20 15:16 | 18.32209 | -67.39935 | 31643 ft | 398 kts | 288° |
| 2026-04-20 15:17 | 18.32947 | -67.42732 | 31194 ft | 395 kts | 288° |
| 2026-04-20 15:17 | 18.33680 | -67.45514 | 30740 ft | 393 kts | 288° |
| 2026-04-20 15:17 | 18.34406 | -67.48275 | 30290 ft | 390 kts | 288° |
| 2026-04-20 15:17 | 18.35129 | -67.51023 | 29796 ft | 388 kts | 288° |
| 2026-04-20 15:18 | 18.35845 | -67.53743 | 29353 ft | 384 kts | 288° |
| 2026-04-20 15:18 | 18.36552 | -67.56441 | 28924 ft | 381 kts | 288° |
| 2026-04-20 15:18 | 18.37253 | -67.59121 | 28493 ft | 378 kts | 288° |
| 2026-04-20 15:18 | 18.37949 | -67.61777 | 28074 ft | 375 kts | 288° |
| 2026-04-20 15:19 | 18.38640 | -67.64416 | 27673 ft | 373 kts | 288° |
| 2026-04-20 15:19 | 18.39327 | -67.67042 | 27261 ft | 371 kts | 288° |
| 2026-04-20 15:19 | 18.40010 | -67.69653 | 26870 ft | 369 kts | 288° |
| 2026-04-20 15:19 | 18.40689 | -67.72249 | 26479 ft | 366 kts | 288° |
| 2026-04-20 15:20 | 18.41362 | -67.74826 | 26092 ft | 364 kts | 288° |
| 2026-04-20 15:20 | 18.42030 | -67.77388 | 25715 ft | 361 kts | 288° |
| 2026-04-20 15:20 | 18.42693 | -67.79928 | 25345 ft | 359 kts | 288° |
| 2026-04-20 15:20 | 18.43352 | -67.82453 | 24963 ft | 356 kts | 288° |
| 2026-04-20 15:21 | 18.44006 | -67.84958 | 24589 ft | 354 kts | 288° |
| 2026-04-20 15:21 | 18.44658 | -67.87449 | 24208 ft | 351 kts | 288° |
| 2026-04-20 15:21 | 18.45306 | -67.89924 | 23822 ft | 350 kts | 288° |
| 2026-04-20 15:21 | 18.45950 | -67.92385 | 23406 ft | 348 kts | 288° |
| 2026-04-20 15:22 | 18.46588 | -67.94831 | 22999 ft | 345 kts | 288° |
| 2026-04-20 15:22 | 18.47216 | -67.97253 | 22605 ft | 342 kts | 288° |
| 2026-04-20 15:22 | 18.47746 | -67.99683 | 22216 ft | 341 kts | 281° |
| 2026-04-20 15:22 | 18.47883 | -68.02177 | 21806 ft | 342 kts | 271° |
| 2026-04-20 15:23 | 18.47819 | -68.04679 | 21403 ft | 341 kts | 271° |
| 2026-04-20 15:23 | 18.47763 | -68.07166 | 20994 ft | 339 kts | 271° |
| 2026-04-20 15:23 | 18.47713 | -68.09649 | 20589 ft | 338 kts | 272° |
| 2026-04-20 15:23 | 18.47666 | -68.12122 | 20179 ft | 337 kts | 271° |
| 2026-04-20 15:24 | 18.47619 | -68.14591 | 19770 ft | 337 kts | 271° |
| 2026-04-20 15:24 | 18.47570 | -68.17056 | 19362 ft | 336 kts | 271° |
| 2026-04-20 15:24 | 18.47519 | -68.19516 | 18955 ft | 336 kts | 271° |
| 2026-04-20 15:24 | 18.47465 | -68.21976 | 18546 ft | 336 kts | 271° |
| 2026-04-20 15:25 | 18.47408 | -68.24434 | 18099 ft | 336 kts | 271° |
| 2026-04-20 15:25 | 18.47354 | -68.26884 | 17683 ft | 334 kts | 270° |
| 2026-04-20 15:25 | 18.47301 | -68.29320 | 17278 ft | 331 kts | 270° |
| 2026-04-20 15:25 | 18.47250 | -68.31736 | 16877 ft | 329 kts | 270° |
| 2026-04-20 15:26 | 18.47197 | -68.34141 | 16476 ft | 328 kts | 270° |
| 2026-04-20 15:26 | 18.47145 | -68.36533 | 16060 ft | 326 kts | 270° |
| 2026-04-20 15:26 | 18.47090 | -68.38932 | 15585 ft | 328 kts | 270° |
| 2026-04-20 15:26 | 18.47032 | -68.41330 | 15178 ft | 327 kts | 270° |
| 2026-04-20 15:27 | 18.46975 | -68.43720 | 14776 ft | 326 kts | 269° |
| 2026-04-20 15:27 | 18.46920 | -68.46104 | 14381 ft | 325 kts | 269° |
| 2026-04-20 15:27 | 18.46868 | -68.48462 | 13993 ft | 324 kts | 269° |
| 2026-04-20 15:27 | 18.46815 | -68.50851 | 13555 ft | 323 kts | 269° |
| 2026-04-20 15:28 | 18.46760 | -68.53216 | 13155 ft | 321 kts | 269° |
| 2026-04-20 15:28 | 18.46705 | -68.55557 | 12770 ft | 319 kts | 269° |
| 2026-04-20 15:28 | 18.46650 | -68.57885 | 12381 ft | 317 kts | 269° |
| 2026-04-20 15:28 | 18.46595 | -68.60203 | 11993 ft | 316 kts | 269° |
| 2026-04-20 15:29 | 18.46540 | -68.62508 | 11615 ft | 315 kts | 269° |
| 2026-04-20 15:29 | 18.46490 | -68.64694 | 11259 ft | 314 kts | 269° |
| 2026-04-20 15:29 | 18.46437 | -68.66983 | 10886 ft | 313 kts | 269° |
| 2026-04-20 15:29 | 18.46383 | -68.69268 | 10512 ft | 312 kts | 269° |
| 2026-04-20 15:30 | 18.46326 | -68.71547 | 10169 ft | 310 kts | 269° |
| 2026-04-20 15:30 | 18.46270 | -68.73780 | 9971 ft | 302 kts | 269° |
| 2026-04-20 15:30 | 18.46233 | -68.75264 | 9901 ft | 298 kts | 269° |
| 2026-04-20 15:30 | 18.46179 | -68.77458 | 9537 ft | 301 kts | 269° |
| 2026-04-20 15:31 | 18.46119 | -68.79665 | 9165 ft | 301 kts | 268° |
| 2026-04-20 15:31 | 18.46016 | -68.81865 | 8783 ft | 300 kts | 267° |
| 2026-04-20 15:31 | 18.45880 | -68.84055 | 8317 ft | 302 kts | 266° |
| 2026-04-20 15:31 | 18.45729 | -68.86280 | 7854 ft | 305 kts | 265° |
| 2026-04-20 15:32 | 18.45577 | -68.88514 | 7423 ft | 307 kts | 265° |
| 2026-04-20 15:32 | 18.45436 | -68.90756 | 6994 ft | 307 kts | 267° |
| 2026-04-20 15:32 | 18.45599 | -68.92998 | 6567 ft | 308 kts | 276° |
| 2026-04-20 15:32 | 18.45847 | -68.95225 | 6114 ft | 308 kts | 276° |
| 2026-04-20 15:33 | 18.46093 | -68.97465 | 5683 ft | 308 kts | 276° |
| 2026-04-20 15:33 | 18.46338 | -68.99703 | 5254 ft | 307 kts | 276° |
| 2026-04-20 15:33 | 18.46582 | -69.01937 | 4820 ft | 307 kts | 276° |
| 2026-04-20 15:33 | 18.46601 | -69.04200 | 4062 ft | 316 kts | 257° |
| 2026-04-20 15:34 | 18.45616 | -69.06265 | 3230 ft | 322 kts | 226° |
| 2026-04-20 15:34 | 18.43756 | -69.07510 | 2719 ft | 313 kts | 192° |
| 2026-04-20 15:34 | 18.41686 | -69.07518 | 2648 ft | 291 kts | 161° |
| 2026-04-20 15:34 | 18.40064 | -69.06430 | 2584 ft | 272 kts | 128° |
| 2026-04-20 15:35 | 18.39347 | -69.04677 | 2408 ft | 265 kts | 95° |
| 2026-04-20 15:35 | 18.39633 | -69.02761 | 2230 ft | 258 kts | 73° |
| 2026-04-20 15:35 | 18.40143 | -69.01053 | 2376 ft | 236 kts | 73° |
| 2026-04-20 15:35 | 18.40592 | -68.99491 | 2496 ft | 212 kts | 79° |
| 2026-04-20 15:36 | 18.40465 | -68.98062 | 2734 ft | 192 kts | 110° |
| 2026-04-20 15:36 | 18.39806 | -68.96868 | 2935 ft | 189 kts | 135° |
| 2026-04-20 15:36 | 18.38596 | -68.96304 | 3002 ft | 195 kts | 173° |
| 2026-04-20 15:36 | 18.37276 | -68.96652 | 3012 ft | 202 kts | 208° |
| 2026-04-20 15:37 | 18.36305 | -68.97730 | 3010 ft | 207 kts | 238° |
| 2026-04-20 15:37 | 18.35831 | -68.99138 | 3021 ft | 208 kts | 253° |
| 2026-04-20 15:37 | 18.35687 | -69.00649 | 3013 ft | 208 kts | 269° |
| 2026-04-20 15:37 | 18.35831 | -69.02162 | 3004 ft | 207 kts | 280° |
| 2026-04-20 15:38 | 18.36239 | -69.03579 | 2890 ft | 196 kts | 295° |
| 2026-04-20 15:38 | 18.37120 | -69.04558 | 2748 ft | 177 kts | 330° |
| 2026-04-20 15:38 | 18.38177 | -69.05077 | 2613 ft | 160 kts | 345° |
| 2026-04-20 15:38 | 18.39244 | -69.05311 | 2302 ft | 156 kts | 355° |
| 2026-04-20 15:39 | 18.40313 | -69.05460 | 2105 ft | 153 kts | 358° |
| 2026-04-20 15:39 | 18.41365 | -69.05448 | 2026 ft | 149 kts | 11° |
| 2026-04-20 15:39 | 18.42374 | -69.05193 | 1995 ft | 147 kts | 22° |
| 2026-04-20 15:39 | 18.43319 | -69.04812 | 1998 ft | 147 kts | 26° |
| 2026-04-20 15:40 | 18.44271 | -69.04380 | 1962 ft | 145 kts | 27° |
| 2026-04-20 15:40 | 18.45195 | -69.03954 | 1699 ft | 146 kts | 28° |
| 2026-04-20 15:40 | 18.45992 | -69.03379 | 1418 ft | 135 kts | 53° |
| 2026-04-20 15:40 | 18.46425 | -69.02531 | 1143 ft | 127 kts | 77° |
| 2026-04-20 15:41 | 18.46517 | -69.01687 | 1015 ft | 106 kts | 92° |
| 2026-04-20 15:41 | 18.46504 | -69.00884 | 468 ft | 122 kts | 94° |
| 2026-04-20 15:41 | 18.46560 | -68.99891 | 769 ft | 141 kts | 90° |
| 2026-04-20 15:41 | 18.46418 | -68.98804 | 1206 ft | 160 kts | 106° |
| 2026-04-20 15:42 | 18.46027 | -68.97562 | 1271 ft | 194 kts | 110° |
| 2026-04-20 15:42 | 18.45738 | -68.96232 | 1025 ft | 173 kts | 98° |
| 2026-04-20 15:42 | 18.45689 | -68.95061 | 712 ft | 150 kts | 95° |
| 2026-04-20 15:42 | 18.45611 | -68.94042 | 552 ft | 131 kts | 98° |
| 2026-04-20 15:43 | 18.45499 | -68.93138 | 348 ft | 118 kts | 100° |
| 2026-04-20 15:43 | 18.45390 | -68.92364 | 247 ft | 92 kts | 96° |
| 2026-04-20 15:43 | 18.45353 | -68.92010 | 246 ft | 3 kts | 98° |
| 2026-04-20 15:43 | 18.45351 | -68.91991 | 245 ft | 7 kts | 98° |
| 2026-04-20 15:44 | 18.45339 | -68.91901 | 244 ft | 17 kts | 98° |
| 2026-04-20 15:44 | 18.45321 | -68.91744 | 244 ft | 26 kts | 96° |
| 2026-04-20 15:44 | 18.45298 | -68.91520 | 241 ft | 36 kts | 97° |
| 2026-04-20 15:44 | 18.45264 | -68.91241 | 239 ft | 30 kts | 97° |
| 2026-04-20 15:45 | 18.45178 | -68.91149 | 239 ft | 19 kts | 183° |
| 2026-04-20 15:45 | 18.45032 | -68.91160 | 236 ft | 24 kts | 176° |
| 2026-04-20 15:45 | 18.44969 | -68.91133 | 234 ft | 8 kts | 185° |
| 2026-04-20 15:45 | 18.44917 | -68.91139 | 235 ft | 0 kts | 187° |